George West, TX (78022)

12:07 AM CDT on July 25, 2014 (GMT -0500)
Sunset Villas (KTXLAKEC2) Elev 120 ft | 28.20 °N, 97.90 °W | Change Station

Current weather conditions updated 23 seconds ago

Clear
Clear
80.9 °F
Feels Like 79 °F
N
1.0
Wind Variable Wind from South
Gusts 2.3 mph

Today is forecast to be Cooler than yesterday.

Today
High -- | Low -- °F
--% Chance of Precip.
Yesterday
High -- | Low -- °F
Precip. -- in
6:50 AM 8:27 PM
Waning Crescent, 3% visible
Pressure 30.01 in
Visibility 10.0 miles
Clouds Clear
Heat Index 79 °F
Dew Point 42 °F
Humidity 25%
Rainfall 0.00 in
Snow Depth Not available.
UV 0 out of 12
Pollen 3.50 out of 12
Air Quality Not available.
Flu Activity Not available.
METAR KBEA 250455Z AUTO 14003KT 10SM CLR 26/23 A3001 RMK AO2 T02600232

More Conditions Fewer Conditions

Pressure 30.01 in
Visibility 10.0 miles
Clouds Clear
Heat Index 79 °F
Dew Point 42 °F
Humidity 25%
Rainfall 0.00 in
Snow Depth Not available.
UV 0 out of 12
Pollen 3.50 out of 12
Air Quality Not available.
Flu Activity Not available.
METAR KBEA 250455Z AUTO 14003KT 10SM CLR 26/23 A3001 RMK AO2 T02600232

More Conditions Fewer Conditions

10-Day Weather Forecast

Almanac

Astronomy

Jul. 25, 2014 Rise Set
Actual Time 6:50 AM CDT 8:27 PM CDT
Civil Twilight 6:24 AM CDT 8:52 PM CDT
Nautical Twilight 5:53 AM CDT 9:23 PM CDT
Astronomical Twilight 5:21 AM CDT 9:56 PM CDT
Moon 5:48 AM CDT 7:29 PM CDT
Length of Visible Light 14h 28m
Length of Day
13h 36m
Tomorrow will be 1m 8s shorter.
Waning Crescent, 3% of the Moon is Illuminated
Today
Waning Crescent
Jul 26
New
Aug 3
First Quarter
Aug 10
Full
Aug 17
Last Quarter

Today's Extremes

State Highs State Lows

Community

WunderPhotos

Upload Photos

1,737,245 photos uploaded!

Nearby

Snow Depth

Station Depth Elevation
No new snow has been reported.

Earthquake Activity

City Distance Mag. Time & Date
No recent earthquake activity has been reported nearby.
Minimum magnitude displayed is 2.5.

Coastal Water Temperatures

Place Temperature
No Stations Reporting

Nearby Weather Stations

Station Location Temp. Heat Index Dew Point Humidity Wind Precip. Elev Updated Type
MesoWest GRGWST , Three Rivers, TX 78 °F 76 °F - - North  at  - 0.00 in / hr 139 ft 10:15 PM CDT MADIS
Sunset Villas, Mathis, TX 80.9 °F 79 °F 42 °F 25% South  at  1.0 mph 0.00 in / hr 120 ft 12:06 AM CDT Rapid Fire
Argenta Community, Mathis, TX 81.3 °F 88 °F 77 °F 86% SE  at  8.5 mph 0.00 in / hr 215 ft 12:07 AM CDT Rapid Fire
MesoWest WHITT , Whitsett, TX 80 °F 78 °F - - North  at  - 0.00 in / hr 202 ft 10:45 PM CDT MADIS
Orange Grove Service Center, Orange Grove, TX 79.3 °F 83 °F 75 °F 86% SE  at  4.0 mph 0.00 in / hr 331 ft 12:06 AM CDT Rapid Fire

Show More Stations Show Fewer Stations